sensor_id;sensor_type;location;lat;lon;timestamp;pressure;altitude;pressure_sealevel;temperature;humidity
29331;BME280;16331;52.528;13.342;2023-02-10T00:00:46;156542.22;;;2.96;100.00
29331;BME280;16331;52.528;13.342;2023-02-10T00:03:12;156456.47;;;2.65;100.00
29331;BME280;16331;52.528;13.342;2023-02-10T00:05:38;156459.16;;;2.66;100.00
29331;BME280;16331;52.528;13.342;2023-02-10T00:08:05;156426.50;;;2.54;100.00
29331;BME280;16331;52.528;13.342;2023-02-10T00:10:31;156388.41;;;2.40;100.00
29331;BME280;16331;52.528;13.342;2023-02-10T00:12:57;156365.25;;;2.31;100.00
29331;BME280;16331;52.528;13.342;2023-02-10T00:15:23;156387.03;;;2.39;100.00
29331;BME280;16331;52.528;13.342;2023-02-10T00:17:50;156387.03;;;2.39;100.00
29331;BME280;16331;52.528;13.342;2023-02-10T00:20:16;156414.25;;;2.49;100.00
29331;BME280;16331;52.528;13.342;2023-02-10T00:22:42;156433.28;;;2.56;100.00
29331;BME280;16331;52.528;13.342;2023-02-10T00:25:08;156407.44;;;2.47;100.00
29331;BME280;16331;52.528;13.342;2023-02-10T00:27:34;156378.88;;;2.36;100.00
29331;BME280;16331;52.528;13.342;2023-02-10T00:30:00;156391.09;;;2.41;100.00
29331;BME280;16331;52.528;13.342;2023-02-10T00:32:26;156400.63;;;2.44;100.00
29331;BME280;16331;52.528;13.342;2023-02-10T00:34:53;156367.94;;;2.32;100.00
29331;BME280;16331;52.528;13.342;2023-02-10T00:37:19;156422.41;;;2.52;100.00
29331;BME280;16331;52.528;13.342;2023-02-10T00:39:45;156463.25;;;2.67;100.00
29331;BME280;16331;52.528;13.342;2023-02-10T00:42:11;156395.19;;;2.42;100.00
29331;BME280;16331;52.528;13.342;2023-02-10T00:44:39;156429.22;;;2.55;100.00
29331;BME280;16331;52.528;13.342;2023-02-10T00:47:07;156482.31;;;2.74;100.00
29331;BME280;16331;52.528;13.342;2023-02-10T00:49:33;156476.84;;;2.72;100.00
29331;BME280;16331;52.528;13.342;2023-02-10T00:51:59;156448.28;;;2.62;100.00
29331;BME280;16331;52.528;13.342;2023-02-10T00:54:25;156517.75;;;2.87;100.00
29331;BME280;16331;52.528;13.342;2023-02-10T00:56:52;156536.78;;;2.94;100.00
29331;BME280;16331;52.528;13.342;2023-02-10T00:59:18;156519.13;;;2.88;100.00
29331;BME280;16331;52.528;13.342;2023-02-10T01:01:45;156540.91;;;2.96;100.00
29331;BME280;16331;52.528;13.342;2023-02-10T01:04:12;156536.78;;;2.94;100.00
29331;BME280;16331;52.528;13.342;2023-02-10T01:06:38;156512.28;;;2.85;100.00
29331;BME280;16331;52.528;13.342;2023-02-10T01:09:04;156508.19;;;2.84;100.00
29331;BME280;16331;52.528;13.342;2023-02-10T01:11:31;156414.25;;;2.49;100.00
29331;BME280;16331;52.528;13.342;2023-02-10T01:13:58;156392.47;;;2.41;100.00
29331;BME280;16331;52.528;13.342;2023-02-10T01:16:24;156419.66;;;2.51;100.00
29331;BME280;16331;52.528;13.342;2023-02-10T01:18:50;156387.03;;;2.39;100.00
29331;BME280;16331;52.528;13.342;2023-02-10T01:21:19;156317.59;;;2.14;100.00
29331;BME280;16331;52.528;13.342;2023-02-10T01:23:46;156402.03;;;2.45;100.00
29331;BME280;16331;52.528;13.342;2023-02-10T01:26:13;156350.25;;;2.26;100.00
29331;BME280;16331;52.528;13.342;2023-02-10T01:28:41;156365.25;;;2.31;100.00
29331;BME280;16331;52.528;13.342;2023-02-10T01:31:09;156363.88;;;2.31;100.00
29331;BME280;16331;52.528;13.342;2023-02-10T01:33:36;156318.97;;;2.14;100.00
29331;BME280;16331;52.528;13.342;2023-02-10T01:36:04;156310.81;;;2.11;100.00
29331;BME280;16331;52.528;13.342;2023-02-10T01:38:31;156278.13;;;1.99;100.00
29331;BME280;16331;52.528;13.342;2023-02-10T01:40:57;156268.59;;;1.96;100.00
29331;BME280;16331;52.528;13.342;2023-02-10T01:43:23;156286.28;;;2.02;100.00
29331;BME280;16331;52.528;13.342;2023-02-10T01:45:50;156269.97;;;1.96;100.00
29331;BME280;16331;52.528;13.342;2023-02-10T01:48:16;156229.13;;;1.81;100.00
29331;BME280;16331;52.528;13.342;2023-02-10T01:50:49;156274.06;;;1.98;100.00
29331;BME280;16331;52.528;13.342;2023-02-10T01:53:19;156279.50;;;2.00;100.00
29331;BME280;16331;52.528;13.342;2023-02-10T01:55:49;156234.59;;;1.83;100.00
29331;BME280;16331;52.528;13.342;2023-02-10T01:58:18;156204.66;;;1.72;100.00
29331;BME280;16331;52.528;13.342;2023-02-10T02:00:46;156220.97;;;1.78;100.00
29331;BME280;16331;52.528;13.342;2023-02-10T02:03:13;156240.03;;;1.85;100.00
29331;BME280;16331;52.528;13.342;2023-02-10T02:05:41;156256.38;;;1.91;100.00
29331;BME280;16331;52.528;13.342;2023-02-10T02:08:23;156256.38;;;1.91;100.00
29331;BME280;16331;52.528;13.342;2023-02-10T02:13:46;156241.44;;;1.86;100.00
29331;BME280;16331;52.528;13.342;2023-02-10T02:16:27;156240.03;;;1.85;100.00
29331;BME280;16331;52.528;13.342;2023-02-10T02:25:17;156223.75;;;1.79;100.00
29331;BME280;16331;52.528;13.342;2023-02-10T02:28:05;156225.06;;;1.80;100.00
29331;BME280;16331;52.528;13.342;2023-02-10T02:31:07;156275.44;;;1.98;100.00
29331;BME280;16331;52.528;13.342;2023-02-10T02:33:43;156310.81;;;2.11;100.00
29331;BME280;16331;52.528;13.342;2023-02-10T02:36:24;156265.91;;;1.95;100.00
29331;BME280;16331;52.528;13.342;2023-02-10T02:38:51;156282.22;;;2.01;100.00
29331;BME280;16331;52.528;13.342;2023-02-10T02:41:28;156343.47;;;2.23;100.00
29331;BME280;16331;52.528;13.342;2023-02-10T02:43:55;156373.41;;;2.34;100.00
29331;BME280;16331;52.528;13.342;2023-02-10T02:49:26;156274.06;;;1.98;100.00
29331;BME280;16331;52.528;13.342;2023-02-10T02:52:12;156265.91;;;1.95;100.00
29331;BME280;16331;52.528;13.342;2023-02-10T02:55:01;156267.28;;;1.95;100.00
29331;BME280;16331;52.528;13.342;2023-02-10T02:57:45;156259.06;;;1.92;100.00
29331;BME280;16331;52.528;13.342;2023-02-10T03:00:22;156264.53;;;1.94;100.00
29331;BME280;16331;52.528;13.342;2023-02-10T03:02:50;156246.81;;;1.88;100.00
29331;BME280;16331;52.528;13.342;2023-02-10T03:05:23;156261.81;;;1.93;100.00
29331;BME280;16331;52.528;13.342;2023-02-10T03:07:55;156234.59;;;1.83;100.00
29331;BME280;16331;52.528;13.342;2023-02-10T03:10:21;156249.59;;;1.89;100.00
29331;BME280;16331;52.528;13.342;2023-02-10T03:12:47;156271.34;;;1.97;100.00
29331;BME280;16331;52.528;13.342;2023-02-10T03:15:14;156208.75;;;1.74;100.00
29331;BME280;16331;52.528;13.342;2023-02-10T03:17:41;156222.34;;;1.79;100.00
29331;BME280;16331;52.528;13.342;2023-02-10T03:20:08;156226.44;;;1.80;100.00
29331;BME280;16331;52.528;13.342;2023-02-10T03:22:34;156248.22;;;1.88;100.00
29331;BME280;16331;52.528;13.342;2023-02-10T03:25:00;156261.81;;;1.93;100.00
29331;BME280;16331;52.528;13.342;2023-02-10T03:27:26;156268.59;;;1.96;100.00
29331;BME280;16331;52.528;13.342;2023-02-10T03:29:53;156248.22;;;1.88;100.00
29331;BME280;16331;52.528;13.342;2023-02-10T03:32:19;156306.69;;;2.10;100.00
29331;BME280;16331;52.528;13.342;2023-02-10T03:34:46;156263.16;;;1.94;100.00
29331;BME280;16331;52.528;13.342;2023-02-10T03:37:12;156297.22;;;2.06;100.00
29331;BME280;16331;52.528;13.342;2023-02-10T03:39:38;156291.75;;;2.04;100.00
29331;BME280;16331;52.528;13.342;2023-02-10T03:42:05;156308.06;;;2.10;100.00
29331;BME280;16331;52.528;13.342;2023-02-10T03:44:32;156357.06;;;2.28;100.00
29331;BME280;16331;52.528;13.342;2023-02-10T03:46:58;156321.69;;;2.15;100.00
29331;BME280;16331;52.528;13.342;2023-02-10T03:49:24;156389.72;;;2.40;100.00
29331;BME280;16331;52.528;13.342;2023-02-10T03:51:51;156372.03;;;2.34;100.00
29331;BME280;16331;52.528;13.342;2023-02-10T03:54:17;156365.25;;;2.31;100.00
29331;BME280;16331;52.528;13.342;2023-02-10T03:56:43;156370.69;;;2.33;100.00
29331;BME280;16331;52.528;13.342;2023-02-10T03:59:09;156408.81;;;2.47;100.00
29331;BME280;16331;52.528;13.342;2023-02-10T04:01:37;156385.66;;;2.39;100.00
29331;BME280;16331;52.528;13.342;2023-02-10T04:04:03;156411.50;;;2.48;100.00
29331;BME280;16331;52.528;13.342;2023-02-10T04:06:29;156359.78;;;2.29;100.00
29331;BME280;16331;52.528;13.342;2023-02-10T04:08:55;156332.59;;;2.19;100.00
29331;BME280;16331;52.528;13.342;2023-02-10T04:11:21;156365.25;;;2.31;100.00
29331;BME280;16331;52.528;13.342;2023-02-10T04:13:48;156313.53;;;2.12;100.00
29331;BME280;16331;52.528;13.342;2023-02-10T04:16:15;156340.75;;;2.22;100.00
29331;BME280;16331;52.528;13.342;2023-02-10T04:18:42;156354.31;;;2.27;100.00
29331;BME280;16331;52.528;13.342;2023-02-10T04:21:10;156327.16;;;2.17;100.00
29331;BME280;16331;52.528;13.342;2023-02-10T04:23:37;156382.94;;;2.38;100.00
29331;BME280;16331;52.528;13.342;2023-02-10T04:26:04;156392.47;;;2.41;100.00
29331;BME280;16331;52.528;13.342;2023-02-10T04:28:30;156459.16;;;2.66;100.00
29331;BME280;16331;52.528;13.342;2023-02-10T04:30:59;156416.97;;;2.50;100.00
29331;BME280;16331;52.528;13.342;2023-02-10T04:33:26;156403.34;;;2.45;100.00
29331;BME280;16331;52.528;13.342;2023-02-10T04:35:54;156400.63;;;2.44;100.00
29331;BME280;16331;52.528;13.342;2023-02-10T04:38:23;156418.34;;;2.51;100.00
29331;BME280;16331;52.528;13.342;2023-02-10T04:40:52;156516.34;;;2.87;100.00
29331;BME280;16331;52.528;13.342;2023-02-10T04:43:18;156479.63;;;2.73;100.00
29331;BME280;16331;52.528;13.342;2023-02-10T04:45:44;156422.41;;;2.52;100.00
29331;BME280;16331;52.528;13.342;2023-02-10T04:48:11;156397.88;;;2.43;100.00
29331;BME280;16331;52.528;13.342;2023-02-10T04:50:38;156474.16;;;2.71;100.00
29331;BME280;16331;52.528;13.342;2023-02-10T04:53:04;156453.75;;;2.64;100.00
29331;BME280;16331;52.528;13.342;2023-02-10T04:55:30;156467.31;;;2.69;100.00
29331;BME280;16331;52.528;13.342;2023-02-10T04:57:57;156487.78;;;2.76;100.00
29331;BME280;16331;52.528;13.342;2023-02-10T05:00:24;156441.44;;;2.59;100.00
29331;BME280;16331;52.528;13.342;2023-02-10T05:02:50;156392.47;;;2.41;100.00
29331;BME280;16331;52.528;13.342;2023-02-10T05:05:16;156449.66;;;2.62;100.00
29331;BME280;16331;52.528;13.342;2023-02-10T05:07:43;156455.06;;;2.64;100.00
29331;BME280;16331;52.528;13.342;2023-02-10T05:10:10;156423.81;;;2.53;100.00
29331;BME280;16331;52.528;13.342;2023-02-10T05:12:37;156460.53;;;2.66;100.00
29331;BME280;16331;52.528;13.342;2023-02-10T05:15:03;156520.44;;;2.88;100.00
29331;BME280;16331;52.528;13.342;2023-02-10T05:17:30;156497.31;;;2.80;100.00
29331;BME280;16331;52.528;13.342;2023-02-10T05:19:56;156468.69;;;2.69;100.00
29331;BME280;16331;52.528;13.342;2023-02-10T05:22:22;156508.19;;;2.84;100.00
29331;BME280;16331;52.528;13.342;2023-02-10T05:24:54;156471.47;;;2.70;100.00
29331;BME280;16331;52.528;13.342;2023-02-10T05:27:23;156460.53;;;2.66;100.00
29331;BME280;16331;52.528;13.342;2023-02-10T05:29:49;156452.38;;;2.63;100.00
29331;BME280;16331;52.528;13.342;2023-02-10T05:32:26;156365.25;;;2.31;100.00
29331;BME280;16331;52.528;13.342;2023-02-10T05:34:53;156357.06;;;2.28;100.00
29331;BME280;16331;52.528;13.342;2023-02-10T05:37:19;156344.84;;;2.24;100.00
29331;BME280;16331;52.528;13.342;2023-02-10T05:39:45;156340.75;;;2.22;100.00
29331;BME280;16331;52.528;13.342;2023-02-10T05:42:11;156304.00;;;2.09;100.00
29331;BME280;16331;52.528;13.342;2023-02-10T05:44:39;156293.13;;;2.05;100.00
29331;BME280;16331;52.528;13.342;2023-02-10T05:47:06;156280.84;;;2.00;100.00
29331;BME280;16331;52.528;13.342;2023-02-10T05:49:32;156286.28;;;2.02;100.00
29331;BME280;16331;52.528;13.342;2023-02-10T05:52:05;156299.91;;;2.07;100.00
29331;BME280;16331;52.528;13.342;2023-02-10T05:54:42;156280.84;;;2.00;100.00
29331;BME280;16331;52.528;13.342;2023-02-10T05:57:13;156275.44;;;1.98;100.00
29331;BME280;16331;52.528;13.342;2023-02-10T05:59:44;156267.28;;;1.95;100.00
29331;BME280;16331;52.528;13.342;2023-02-10T06:02:13;156280.84;;;2.00;100.00
29331;BME280;16331;52.528;13.342;2023-02-10T06:04:39;156295.84;;;2.06;100.00
29331;BME280;16331;52.528;13.342;2023-02-10T06:07:05;156305.38;;;2.09;100.00
29331;BME280;16331;52.528;13.342;2023-02-10T06:09:32;156290.38;;;2.04;100.00
29331;BME280;16331;52.528;13.342;2023-02-10T06:11:58;156291.75;;;2.04;100.00
29331;BME280;16331;52.528;13.342;2023-02-10T06:14:30;156268.59;;;1.96;100.00
29331;BME280;16331;52.528;13.342;2023-02-10T06:16:59;156263.16;;;1.94;100.00
29331;BME280;16331;52.528;13.342;2023-02-10T06:19:25;156253.66;;;1.90;100.00
29331;BME280;16331;52.528;13.342;2023-02-10T06:21:52;156240.03;;;1.85;100.00
29331;BME280;16331;52.528;13.342;2023-02-10T06:24:18;156235.97;;;1.84;100.00
29331;BME280;16331;52.528;13.342;2023-02-10T06:26:44;156293.13;;;2.05;100.00
29331;BME280;16331;52.528;13.342;2023-02-10T06:29:11;156310.81;;;2.11;100.00
29331;BME280;16331;52.528;13.342;2023-02-10T06:31:37;156271.34;;;1.97;100.00
29331;BME280;16331;52.528;13.342;2023-02-10T06:34:03;156291.75;;;2.04;100.00
29331;BME280;16331;52.528;13.342;2023-02-10T06:36:31;156282.22;;;2.01;100.00
29331;BME280;16331;52.528;13.342;2023-02-10T06:38:57;156275.44;;;1.98;100.00
29331;BME280;16331;52.528;13.342;2023-02-10T06:41:23;156316.22;;;2.13;100.00
29331;BME280;16331;52.528;13.342;2023-02-10T06:43:57;156275.44;;;1.98;100.00
29331;BME280;16331;52.528;13.342;2023-02-10T06:46:24;156263.16;;;1.94;100.00
29331;BME280;16331;52.528;13.342;2023-02-10T06:48:53;156278.13;;;1.99;100.00
29331;BME280;16331;52.528;13.342;2023-02-10T06:51:20;156287.66;;;2.03;100.00
29331;BME280;16331;52.528;13.342;2023-02-10T06:53:48;156324.38;;;2.16;100.00
29331;BME280;16331;52.528;13.342;2023-02-10T06:56:15;156335.31;;;2.20;100.00
29331;BME280;16331;52.528;13.342;2023-02-10T06:58:41;156329.84;;;2.18;100.00
29331;BME280;16331;52.528;13.342;2023-02-10T07:01:27;156348.91;;;2.25;100.00
29331;BME280;16331;52.528;13.342;2023-02-10T07:03:54;156357.06;;;2.28;100.00
29331;BME280;16331;52.528;13.342;2023-02-10T07:06:20;156381.56;;;2.37;100.00
29331;BME280;16331;52.528;13.342;2023-02-10T07:08:47;156377.47;;;2.36;100.00
29331;BME280;16331;52.528;13.342;2023-02-10T07:11:16;156355.69;;;2.28;100.00
29331;BME280;16331;52.528;13.342;2023-02-10T07:13:42;156406.09;;;2.46;100.00
29331;BME280;16331;52.528;13.342;2023-02-10T07:16:09;156408.81;;;2.47;100.00
29331;BME280;16331;52.528;13.342;2023-02-10T07:18:41;156442.81;;;2.60;100.00
29331;BME280;16331;52.528;13.342;2023-02-10T07:21:08;156471.47;;;2.70;100.00
29331;BME280;16331;52.528;13.342;2023-02-10T07:23:34;156444.22;;;2.60;100.00
29331;BME280;16331;52.528;13.342;2023-02-10T07:26:00;156478.25;;;2.73;100.00
29331;BME280;16331;52.528;13.342;2023-02-10T07:28:26;156509.56;;;2.84;100.00
29331;BME280;16331;52.528;13.342;2023-02-10T07:30:53;156506.81;;;2.83;100.00
29331;BME280;16331;52.528;13.342;2023-02-10T07:33:19;156539.53;;;2.95;100.00
29331;BME280;16331;52.528;13.342;2023-02-10T07:35:45;156538.16;;;2.95;100.00
29331;BME280;16331;52.528;13.342;2023-02-10T07:38:11;156579.03;;;3.10;100.00
29331;BME280;16331;52.528;13.342;2023-02-10T07:40:37;156668.94;;;3.43;100.00
29331;BME280;16331;52.528;13.342;2023-02-10T07:43:04;156611.69;;;3.22;100.00
29331;BME280;16331;52.528;13.342;2023-02-10T07:45:31;156643.06;;;3.34;100.00
29331;BME280;16331;52.528;13.342;2023-02-10T07:47:58;156589.91;;;3.14;100.00
29331;BME280;16331;52.528;13.342;2023-02-10T07:50:26;156610.38;;;3.22;100.00
29331;BME280;16331;52.528;13.342;2023-02-10T07:52:52;156606.28;;;3.20;100.00
29331;BME280;16331;52.528;13.342;2023-02-10T07:55:19;156659.41;;;3.40;100.00
29331;BME280;16331;52.528;13.342;2023-02-10T07:57:48;156662.16;;;3.41;100.00
29331;BME280;16331;52.528;13.342;2023-02-10T08:00:16;156643.06;;;3.34;100.00
29331;BME280;16331;52.528;13.342;2023-02-10T08:02:42;156611.69;;;3.22;100.00
29331;BME280;16331;52.528;13.342;2023-02-10T08:05:09;156675.78;;;3.46;100.00
29331;BME280;16331;52.528;13.342;2023-02-10T08:07:36;156643.06;;;3.34;100.00
29331;BME280;16331;52.528;13.342;2023-02-10T08:10:03;156750.69;;;3.73;100.00
29331;BME280;16331;52.528;13.342;2023-02-10T08:12:34;156703.00;;;3.56;100.00
29331;BME280;16331;52.528;13.342;2023-02-10T08:15:03;156756.16;;;3.75;100.00
29331;BME280;16331;52.528;13.342;2023-02-10T08:17:30;156730.28;;;3.66;100.00
29331;BME280;16331;52.528;13.342;2023-02-10T08:19:56;156793.00;;;3.89;100.00
29331;BME280;16331;52.528;13.342;2023-02-10T08:22:23;156836.63;;;4.05;100.00
29331;BME280;16331;52.528;13.342;2023-02-10T08:24:49;156857.06;;;4.12;100.00
29331;BME280;16331;52.528;13.342;2023-02-10T08:27:17;156835.25;;;4.04;100.00
29331;BME280;16331;52.528;13.342;2023-02-10T08:32:46;156865.25;;;4.15;100.00
29331;BME280;16331;52.528;13.342;2023-02-10T08:35:12;156810.66;;;3.95;100.00
29331;BME280;16331;52.528;13.342;2023-02-10T08:37:38;156801.19;;;3.92;100.00
29331;BME280;16331;52.528;13.342;2023-02-10T08:40:05;156824.31;;;4.00;100.00
29331;BME280;16331;52.528;13.342;2023-02-10T08:42:31;156882.97;;;4.22;100.00
29331;BME280;16331;52.528;13.342;2023-02-10T08:44:58;156888.44;;;4.24;100.00
29331;BME280;16331;52.528;13.342;2023-02-10T08:47:27;156876.13;;;4.19;100.00
29331;BME280;16331;52.528;13.342;2023-02-10T08:49:53;156896.63;;;4.27;100.00
29331;BME280;16331;52.528;13.342;2023-02-10T08:52:22;156951.16;;;4.47;100.00
29331;BME280;16331;52.528;13.342;2023-02-10T08:54:49;157001.66;;;4.66;100.00
29331;BME280;16331;52.528;13.342;2023-02-10T08:57:15;156962.09;;;4.51;100.00
29331;BME280;16331;52.528;13.342;2023-02-10T08:59:43;157002.97;;;4.66;100.00
29331;BME280;16331;52.528;13.342;2023-02-10T09:02:11;156940.25;;;4.43;100.00
29331;BME280;16331;52.528;13.342;2023-02-10T09:04:38;156967.50;;;4.53;100.00
29331;BME280;16331;52.528;13.342;2023-02-10T09:07:04;157000.28;;;4.65;100.00
29331;BME280;16331;52.528;13.342;2023-02-10T09:09:36;156972.97;;;4.55;100.00
29331;BME280;16331;52.528;13.342;2023-02-10T09:12:03;157001.66;;;4.66;100.00
29331;BME280;16331;52.528;13.342;2023-02-10T09:14:30;157035.75;;;4.78;100.00
29331;BME280;16331;52.528;13.342;2023-02-10T09:16:56;157064.38;;;4.89;100.00
29331;BME280;16331;52.528;13.342;2023-02-10T09:19:23;157016.63;;;4.71;100.00
29331;BME280;16331;52.528;13.342;2023-02-10T09:21:50;156926.63;;;4.38;100.00
29331;BME280;16331;52.528;13.342;2023-02-10T09:24:16;156911.59;;;4.32;100.00
29331;BME280;16331;52.528;13.342;2023-02-10T09:26:43;156948.44;;;4.46;100.00
29331;BME280;16331;52.528;13.342;2023-02-10T09:29:10;156966.19;;;4.53;100.00
29331;BME280;16331;52.528;13.342;2023-02-10T09:31:38;157002.97;;;4.66;100.00
29331;BME280;16331;52.528;13.342;2023-02-10T09:34:04;156990.72;;;4.62;100.00
29331;BME280;16331;52.528;13.342;2023-02-10T09:36:30;156967.50;;;4.53;100.00
29331;BME280;16331;52.528;13.342;2023-02-10T09:38:57;157024.81;;;4.74;100.00
29331;BME280;16331;52.528;13.342;2023-02-10T09:44:19;157011.16;;;4.69;100.00
29331;BME280;16331;52.528;13.342;2023-02-10T09:46:55;157020.72;;;4.73;100.00
29331;BME280;16331;52.528;13.342;2023-02-10T09:49:52;157065.78;;;4.89;100.00
29331;BME280;16331;52.528;13.342;2023-02-10T09:55:28;157168.09;;;5.27;100.00
29331;BME280;16331;52.528;13.342;2023-02-10T09:58:13;157222.75;;;5.47;100.00
29331;BME280;16331;52.528;13.342;2023-02-10T10:00:43;157270.53;;;5.64;100.00
29331;BME280;16331;52.528;13.342;2023-02-10T10:03:28;157181.75;;;5.32;100.00
29331;BME280;16331;52.528;13.342;2023-02-10T10:11:48;157162.69;;;5.25;100.00
29331;BME280;16331;52.528;13.342;2023-02-10T10:14:29;157235.03;;;5.51;100.00
29331;BME280;16331;52.528;13.342;2023-02-10T10:22:56;157229.53;;;5.49;100.00
29331;BME280;16331;52.528;13.342;2023-02-10T10:31:55;157248.69;;;5.56;100.00
29331;BME280;16331;52.528;13.342;2023-02-10T10:34:27;157296.47;;;5.74;100.00
29331;BME280;16331;52.528;13.342;2023-02-10T10:36:57;157258.25;;;5.60;100.00
29331;BME280;16331;52.528;13.342;2023-02-10T10:39:38;157245.91;;;5.55;100.00
29331;BME280;16331;52.528;13.342;2023-02-10T10:45:24;157396.25;;;6.11;100.00
29331;BME280;16331;52.528;13.342;2023-02-10T10:47:56;157433.16;;;6.24;100.00
29331;BME280;16331;52.528;13.342;2023-02-10T10:50:25;157422.19;;;6.20;100.00
29331;BME280;16331;52.528;13.342;2023-02-10T10:52:53;157356.63;;;5.96;100.00
29331;BME280;16331;52.528;13.342;2023-02-10T10:55:37;157414.00;;;6.17;100.00
29331;BME280;16331;52.528;13.342;2023-02-10T10:58:24;157405.81;;;6.14;100.00
29331;BME280;16331;52.528;13.342;2023-02-10T11:00:59;157352.53;;;5.95;100.00
29331;BME280;16331;52.528;13.342;2023-02-10T11:03:27;157452.25;;;6.31;100.00
29331;BME280;16331;52.528;13.342;2023-02-10T11:08:39;157396.25;;;6.11;100.00
29331;BME280;16331;52.528;13.342;2023-02-10T11:11:10;157486.41;;;6.44;100.00
29331;BME280;16331;52.528;13.342;2023-02-10T11:13:39;157497.38;;;6.48;100.00
29331;BME280;16331;52.528;13.342;2023-02-10T11:16:12;157538.34;;;6.63;100.00
29331;BME280;16331;52.528;13.342;2023-02-10T11:18:55;157627.22;;;6.95;100.00
29331;BME280;16331;52.528;13.342;2023-02-10T11:21:31;157640.91;;;7.00;100.00
29331;BME280;16331;52.528;13.342;2023-02-10T11:23:58;157595.75;;;6.84;100.00
29331;BME280;16331;52.528;13.342;2023-02-10T11:26:26;157576.66;;;6.77;100.00
29331;BME280;16331;52.528;13.342;2023-02-10T11:28:55;157658.69;;;7.07;100.00
29331;BME280;16331;52.528;13.342;2023-02-10T11:31:25;157688.75;;;7.18;100.00
29331;BME280;16331;52.528;13.342;2023-02-10T11:34:02;157595.75;;;6.84;100.00
29331;BME280;16331;52.528;13.342;2023-02-10T11:36:35;157647.72;;;7.03;100.00
29331;BME280;16331;52.528;13.342;2023-02-10T11:39:06;157670.97;;;7.11;100.00
29331;BME280;16331;52.528;13.342;2023-02-10T11:41:35;157716.13;;;7.28;100.00
29331;BME280;16331;52.528;13.342;2023-02-10T11:44:01;157855.66;;;7.79;100.00
29331;BME280;16331;52.528;13.342;2023-02-10T11:46:30;157765.31;;;7.46;100.00
29331;BME280;16331;52.528;13.342;2023-02-10T11:49:03;157831.00;;;7.70;100.00
29331;BME280;16331;52.528;13.342;2023-02-10T11:51:32;157758.50;;;7.44;100.00
29331;BME280;16331;52.528;13.342;2023-02-10T11:53:58;157670.97;;;7.11;100.00
29331;BME280;16331;52.528;13.342;2023-02-10T11:56:55;157751.66;;;7.41;100.00
29331;BME280;16331;52.528;13.342;2023-02-10T11:59:51;157787.22;;;7.54;100.00
29331;BME280;16331;52.528;13.342;2023-02-10T12:05:39;157780.41;;;7.52;100.00
29331;BME280;16331;52.528;13.342;2023-02-10T12:08:15;157713.34;;;7.27;100.00
29331;BME280;16331;52.528;13.342;2023-02-10T12:10:49;157707.94;;;7.25;100.00
29331;BME280;16331;52.528;13.342;2023-02-10T12:13:29;157683.28;;;7.16;100.00
29331;BME280;16331;52.528;13.342;2023-02-10T12:18:45;157810.50;;;7.63;100.00
29331;BME280;16331;52.528;13.342;2023-02-10T12:21:44;157861.09;;;7.81;100.00
29331;BME280;16331;52.528;13.342;2023-02-10T12:33:11;158055.56;;;8.52;100.00
29331;BME280;16331;52.528;13.342;2023-02-10T12:38:49;158287.06;;;9.37;100.00
29331;BME280;16331;52.528;13.342;2023-02-10T12:44:10;158200.75;;;9.06;100.00
29331;BME280;16331;52.528;13.342;2023-02-10T12:52:35;157918.59;;;8.02;100.00
29331;BME280;16331;52.528;13.342;2023-02-10T12:55:18;157867.97;;;7.84;100.00
29331;BME280;16331;52.528;13.342;2023-02-10T12:58:08;157883.00;;;7.89;100.00
29331;BME280;16331;52.528;13.342;2023-02-10T13:00:42;157828.28;;;7.69;100.00
29331;BME280;16331;52.528;13.342;2023-02-10T13:03:25;157925.47;;;8.05;100.00
29331;BME280;16331;52.528;13.342;2023-02-10T13:06:05;157913.16;;;8.00;100.00
29331;BME280;16331;52.528;13.342;2023-02-10T13:08:41;157935.00;;;8.08;100.00
29331;BME280;16331;52.528;13.342;2023-02-10T13:11:18;157792.69;;;7.56;100.00
29331;BME280;16331;52.528;13.342;2023-02-10T13:13:46;157811.88;;;7.63;100.00
29331;BME280;16331;52.528;13.342;2023-02-10T13:16:23;157904.91;;;7.97;100.00
29331;BME280;16331;52.528;13.342;2023-02-10T13:21:56;157967.88;;;8.20;100.00
29331;BME280;16331;52.528;13.342;2023-02-10T13:24:30;157929.56;;;8.06;100.00
29331;BME280;16331;52.528;13.342;2023-02-10T13:27:32;157810.50;;;7.63;100.00
29331;BME280;16331;52.528;13.342;2023-02-10T13:33:01;157739.34;;;7.36;100.00
29331;BME280;16331;52.528;13.342;2023-02-10T13:35:36;157809.09;;;7.62;100.00
29331;BME280;16331;52.528;13.342;2023-02-10T13:38:14;157806.38;;;7.61;100.00
29331;BME280;16331;52.528;13.342;2023-02-10T13:40:54;157738.00;;;7.36;100.00
29331;BME280;16331;52.528;13.342;2023-02-10T13:43:40;157707.94;;;7.25;100.00
29331;BME280;16331;52.528;13.342;2023-02-10T13:46:20;157750.31;;;7.41;100.00
29331;BME280;16331;52.528;13.342;2023-02-10T13:48:52;157792.69;;;7.56;100.00
29331;BME280;16331;52.528;13.342;2023-02-10T13:51:33;157843.31;;;7.75;100.00
29331;BME280;16331;52.528;13.342;2023-02-10T13:54:02;157895.34;;;7.94;100.00
29331;BME280;16331;52.528;13.342;2023-02-10T13:56:31;157825.56;;;7.68;100.00
29331;BME280;16331;52.528;13.342;2023-02-10T13:59:02;157790.00;;;7.55;100.00
29331;BME280;16331;52.528;13.342;2023-02-10T14:01:49;157785.88;;;7.54;100.00
29331;BME280;16331;52.528;13.342;2023-02-10T14:06:49;157858.38;;;7.80;100.00
29331;BME280;16331;52.528;13.342;2023-02-10T14:09:33;157904.91;;;7.97;100.00
29331;BME280;16331;52.528;13.342;2023-02-10T14:12:05;157976.13;;;8.23;100.00
29331;BME280;16331;52.528;13.342;2023-02-10T14:14:48;157959.66;;;8.17;100.00